createdAt,value
2019-02-21T06:07:49.874Z,11.10
2019-02-21T06:10:36.992Z,19.05
2019-02-21T06:29:09.742Z,15.70
2019-02-21T06:34:03.985Z,17.10
2019-02-21T08:12:14.004Z,15.70
2019-02-21T08:17:09.837Z,16.90
2019-02-21T08:36:52.571Z,19.40
2019-02-21T08:41:46.566Z,14.80
2019-02-21T08:46:40.558Z,13.90
2019-02-21T08:49:07.711Z,7.60
2019-02-21T08:51:34.860Z,15.40
2019-02-21T08:54:02.010Z,13.05
2019-02-21T08:58:57.541Z,12.90
2019-02-21T09:01:24.691Z,9.60
2019-02-21T09:08:45.528Z,9.35
2019-02-21T09:11:12.679Z,13.25
2019-02-21T09:13:41.704Z,8.80
2019-02-21T09:16:09.130Z,9.20
2019-02-21T09:18:36.429Z,13.85
2019-02-21T09:21:03.738Z,7.60
2019-02-21T09:23:30.892Z,7.10
2019-02-21T09:25:58.039Z,5.50
2019-02-21T09:28:25.195Z,10.35
2019-02-21T09:33:21.345Z,11.80
2019-02-21T09:35:48.183Z,6.90
2019-02-21T09:38:15.329Z,7.60
2019-02-21T09:40:42.814Z,5.50
2019-02-21T09:43:10.243Z,6.50
2019-02-21T09:45:38.319Z,14.00
2019-02-21T09:48:05.774Z,8.70
2019-02-21T09:50:32.924Z,4.60
2019-02-21T09:53:00.076Z,11.35
2019-02-21T09:55:29.640Z,11.30
2019-02-21T09:57:56.223Z,13.30
2019-02-21T10:00:23.370Z,5.90
2019-02-21T10:02:53.438Z,14.50
2019-02-21T10:05:19.513Z,12.40
2019-02-21T10:07:46.664Z,17.35
2019-02-21T10:10:17.194Z,20.90
2019-02-21T10:12:44.344Z,6.20
2019-02-21T10:15:15.491Z,7.90
2019-02-21T10:17:42.639Z,13.50
2019-02-21T10:20:17.173Z,11.55
2019-02-21T10:22:44.315Z,16.65
2019-02-21T10:25:15.402Z,6.60
2019-02-21T10:27:42.710Z,8.40
2019-02-21T10:30:13.349Z,6.40
2019-02-21T10:32:40.288Z,12.45
2019-02-21T10:35:07.443Z,3.30
2019-02-21T10:37:34.595Z,6.05
2019-02-21T10:40:01.741Z,11.95
2019-02-21T10:44:55.740Z,8.65
2019-02-21T10:47:22.577Z,9.10
2019-02-21T10:49:49.421Z,6.03
2019-02-21T10:52:16.264Z,5.40
2019-02-21T10:54:43.415Z,4.70
2019-02-21T10:57:10.257Z,4.10
2019-02-21T10:59:46.294Z,3.05
2019-02-21T11:02:06.145Z,12.10
2019-02-21T11:04:33.249Z,6.50
2019-02-21T11:07:00.395Z,15.45
2019-02-21T11:09:27.546Z,10.10
2019-02-21T11:11:54.672Z,6.60
2019-02-21T11:14:21.847Z,10.00
2019-02-21T11:16:49.002Z,9.60
2019-02-21T11:19:16.149Z,9.23
2019-02-21T11:21:43.302Z,11.90
2019-02-21T11:24:10.449Z,14.80
2019-02-21T11:26:37.601Z,12.00
2019-02-21T11:29:04.755Z,17.80
2019-02-21T11:31:31.902Z,15.10
2019-02-21T11:33:59.055Z,11.85
2019-02-21T11:36:26.202Z,13.00
2019-02-21T11:38:53.354Z,21.80
2019-02-21T11:41:20.508Z,12.73
2019-02-21T11:43:47.655Z,12.70
2019-02-21T11:46:14.804Z,11.10
2019-02-21T11:48:41.955Z,10.30
2019-02-21T11:51:09.105Z,9.90
2019-02-21T11:53:38.048Z,10.70
2019-02-21T11:56:05.255Z,11.70
2019-02-21T11:58:32.400Z,15.55
2019-02-21T12:00:59.857Z,21.13
2019-02-21T12:03:26.873Z,10.80
2019-02-21T12:05:54.159Z,11.48
2019-02-21T12:08:21.311Z,7.93
2019-02-21T12:10:50.887Z,9.30
2019-02-21T12:13:17.198Z,14.43
2019-02-21T12:15:44.300Z,13.30
2019-02-21T12:18:11.448Z,15.47
2019-02-21T12:20:38.600Z,21.82
2019-02-21T12:23:06.365Z,11.30
2019-02-21T12:25:33.457Z,18.80
2019-02-21T12:28:00.663Z,19.95
2019-02-21T12:30:27.814Z,17.82
2019-02-21T12:32:54.965Z,14.10
2019-02-21T12:35:29.513Z,16.90
2019-02-21T12:37:51.116Z,12.40
2019-02-21T12:40:18.877Z,14.10
2019-02-21T12:42:46.027Z,21.77
2019-02-21T12:45:14.461Z,13.72
2019-02-21T12:47:49.741Z,14.50
2019-02-21T12:50:10.857Z,14.30
2019-02-21T12:52:38.008Z,14.60
2019-02-21T12:55:06.694Z,11.15
2019-02-21T12:57:33.844Z,14.60
2019-02-21T13:00:00.994Z,15.60
2019-02-21T13:02:28.146Z,33.60
2019-02-21T13:04:55.298Z,12.73
2019-02-21T13:07:22.446Z,6.67
2019-02-21T13:09:49.596Z,8.00
2019-02-21T13:12:16.746Z,14.35
2019-02-21T13:14:43.898Z,9.68
2019-02-21T13:17:11.048Z,13.03
2019-02-21T13:19:38.214Z,11.33
2019-02-21T13:22:05.348Z,8.60
2019-02-21T13:24:32.500Z,5.22
2019-02-21T13:26:59.650Z,10.63
2019-02-21T13:29:26.800Z,6.08
2019-02-21T13:31:53.956Z,8.05
2019-02-21T13:34:21.104Z,9.70
2019-02-21T13:36:48.252Z,4.90
2019-02-21T13:39:15.405Z,16.57
2019-02-21T13:41:42.553Z,11.48
2019-02-21T13:44:09.713Z,8.73
2019-02-21T13:46:38.787Z,9.55
2019-02-21T13:49:05.848Z,11.28
2019-02-21T13:51:33.101Z,11.48
2019-02-21T13:54:00.461Z,10.50
2019-02-21T13:56:27.608Z,11.53
2019-02-21T13:58:54.760Z,9.83
2019-02-21T14:01:22.229Z,8.60
2019-02-21T14:03:49.366Z,12.98
2019-02-21T14:06:19.079Z,24.25
2019-02-21T14:08:45.510Z,14.45
2019-02-21T14:11:12.660Z,14.78
2019-02-21T14:13:39.757Z,13.03
2019-02-21T14:16:06.961Z,16.43
2019-02-21T14:18:34.113Z,21.20
2019-02-21T14:21:01.266Z,19.57
2019-02-21T14:23:28.721Z,13.68
2019-02-21T14:25:55.871Z,17.27
2019-02-21T14:28:23.027Z,14.58
2019-02-21T14:30:50.179Z,23.98
2019-02-21T14:33:17.587Z,22.87
2019-02-21T14:35:45.090Z,18.60
2019-02-21T14:38:12.239Z,15.37
2019-02-21T14:40:39.389Z,306.03
2019-02-21T14:43:06.540Z,584.00
2019-02-21T14:45:33.689Z,1105.53
2019-02-21T14:48:00.840Z,1241.77
2019-02-21T14:50:27.991Z,1312.63
2019-02-21T14:52:55.141Z,1353.70
2019-02-21T14:55:22.306Z,790.43
2019-02-21T14:57:49.444Z,1057.00
2019-02-21T15:00:36.258Z,1154.80
2019-02-21T15:03:03.404Z,1253.40
2019-02-21T15:05:30.556Z,631.97
2019-02-21T15:07:57.710Z,794.88
2019-02-21T15:10:24.871Z,68.57
2019-02-21T15:12:52.007Z,20.70
2019-02-21T15:15:22.082Z,13.60
2019-02-21T15:17:49.325Z,13.23
2019-02-21T15:20:16.892Z,10.93
2019-02-21T15:22:44.093Z,10.78
2019-02-21T15:25:12.060Z,11.30
2019-02-21T15:27:39.210Z,12.50
2019-02-21T15:30:13.921Z,11.03
2019-02-21T15:32:41.192Z,43.45
2019-02-21T15:35:08.343Z,17.80
2019-02-21T15:37:35.494Z,23.35
2019-02-21T15:40:02.929Z,15.95
2019-02-21T15:42:30.277Z,12.90
2019-02-21T15:44:57.561Z,13.62
2019-02-21T15:47:24.710Z,19.82
2019-02-21T15:49:51.860Z,109.03
2019-02-21T15:52:22.165Z,1254.63
2019-02-21T15:54:48.005Z,881.15
2019-02-21T15:57:15.171Z,274.23
2019-02-21T15:59:42.310Z,877.00
2019-02-21T16:02:09.456Z,1290.83
2019-02-21T16:04:36.607Z,984.03
2019-02-21T16:07:03.761Z,427.93
2019-02-21T16:09:30.909Z,313.02
2019-02-21T16:11:58.076Z,269.60
2019-02-21T16:14:25.208Z,237.63
2019-02-21T16:16:52.371Z,270.88
2019-02-21T16:19:19.569Z,198.47
2019-02-21T16:21:46.979Z,279.02
2019-02-21T16:24:14.118Z,351.77
2019-02-21T16:26:41.575Z,583.13
2019-02-21T16:29:08.726Z,473.50
2019-02-21T16:31:36.183Z,464.17
2019-02-21T16:34:03.336Z,635.65
2019-02-21T16:36:30.495Z,491.18
2019-02-21T16:38:57.654Z,514.08
2019-02-21T16:41:24.786Z,580.90
2019-02-21T16:46:18.781Z,425.97
2019-02-21T16:48:45.933Z,262.55
2019-02-21T16:51:13.081Z,131.80
2019-02-21T16:53:39.926Z,20.32
2019-02-21T16:56:07.076Z,10.03
2019-02-21T16:58:34.225Z,7.50
2019-02-21T17:01:01.379Z,9.20
2019-02-21T17:03:28.543Z,7.78
2019-02-21T17:05:55.679Z,13.15
2019-02-21T17:08:22.827Z,9.10
2019-02-21T17:10:49.978Z,18.13
2019-02-21T17:13:17.133Z,13.88
2019-02-21T17:15:44.279Z,12.25
2019-02-21T17:18:11.430Z,13.93
2019-02-21T17:20:38.580Z,27.30
2019-02-21T17:23:05.730Z,24.20
2019-02-21T17:25:32.886Z,14.40
2019-02-21T17:28:00.034Z,11.88
2019-02-21T17:30:27.186Z,21.45
2019-02-21T17:32:54.333Z,11.50
2019-02-21T17:35:21.484Z,7.45
2019-02-21T17:37:48.941Z,16.00
2019-02-21T17:40:19.164Z,8.85
2019-02-21T17:42:46.315Z,11.68
2019-02-21T17:45:13.466Z,16.32
2019-02-21T17:47:40.616Z,20.75
2019-02-21T17:50:10.908Z,10.43
2019-02-21T17:52:37.873Z,14.78
2019-02-21T17:55:06.313Z,10.72
2019-02-21T17:57:33.519Z,22.90
2019-02-21T18:00:00.670Z,9.73
2019-02-21T18:02:28.126Z,11.05
2019-02-21T18:04:55.277Z,13.93
2019-02-21T18:07:22.445Z,18.45
2019-02-21T18:09:49.886Z,14.50
2019-02-21T18:12:17.050Z,9.23
2019-02-21T18:14:44.233Z,16.97
2019-02-21T18:17:11.337Z,17.40
2019-02-21T18:19:38.489Z,11.95
2019-02-21T18:22:05.644Z,10.93
2019-02-21T18:24:32.799Z,22.45
2019-02-21T18:26:59.941Z,12.23
2019-02-21T18:29:27.091Z,9.38
2019-02-21T18:31:54.164Z,8.15
2019-02-21T18:34:21.394Z,9.80
2019-02-21T18:36:48.541Z,7.97
2019-02-21T18:39:16.045Z,13.10
2019-02-21T18:41:43.150Z,8.87
2019-02-21T18:44:10.278Z,11.20
2019-02-21T18:46:37.451Z,9.60
2019-02-21T18:49:04.704Z,8.98
2019-02-21T18:51:32.060Z,8.00
2019-02-21T18:53:59.211Z,15.60
2019-02-21T18:56:26.360Z,25.68
2019-02-21T18:58:53.512Z,10.10
2019-02-21T19:01:20.662Z,9.98
2019-02-21T19:03:47.813Z,16.45
2019-02-21T19:06:14.980Z,14.63
2019-02-21T19:08:42.113Z,27.75
2019-02-21T19:11:09.570Z,12.88
2019-02-21T19:13:36.722Z,16.70
2019-02-21T19:16:03.877Z,10.45
2019-02-21T19:18:31.025Z,8.40
2019-02-21T19:20:58.173Z,10.65
2019-02-21T19:23:25.335Z,8.65
2019-02-21T19:25:52.782Z,15.63
2019-02-21T19:28:20.856Z,11.48
2019-02-21T19:30:49.688Z,6.45
2019-02-21T19:33:16.997Z,12.58
2019-02-21T19:35:44.150Z,8.78
2019-02-21T19:38:11.400Z,11.68
2019-02-21T19:40:38.449Z,5.15
2019-02-21T19:43:05.600Z,20.25
2019-02-21T19:45:32.751Z,10.43
2019-02-21T19:47:59.902Z,4.95
2019-02-21T19:50:27.618Z,9.40
2019-02-21T19:52:54.511Z,5.92
2019-02-21T19:55:21.406Z,6.17
2019-02-21T19:57:48.757Z,22.20
2019-02-21T20:00:27.370Z,18.00
2019-02-21T20:02:54.530Z,15.68
2019-02-21T20:05:21.813Z,22.57
2019-02-21T20:07:49.087Z,20.77
2019-02-21T20:10:16.374Z,11.75
2019-02-21T20:12:43.694Z,12.75
2019-02-21T20:15:11.182Z,23.18
2019-02-21T20:17:38.306Z,12.80
2019-02-21T20:20:07.911Z,12.73
2019-02-21T20:22:35.063Z,14.75
2019-02-21T20:25:02.830Z,12.25
2019-02-21T20:27:30.286Z,11.78
2019-02-21T20:29:57.436Z,11.33
2019-02-21T20:32:24.893Z,10.60
2019-02-21T20:34:52.044Z,9.20
2019-02-21T20:37:19.248Z,11.28
2019-02-21T20:39:46.653Z,7.85
2019-02-21T20:42:13.805Z,26.50
2019-02-21T20:44:40.952Z,4.72
2019-02-21T20:47:08.103Z,7.67
2019-02-21T20:49:35.253Z,12.98
2019-02-21T20:52:02.408Z,9.65
2019-02-21T20:54:29.554Z,9.27
2019-02-21T20:56:56.706Z,18.95
2019-02-21T20:59:23.855Z,17.10
2019-02-21T21:01:51.006Z,10.88
2019-02-21T21:04:18.157Z,15.45
2019-02-21T21:06:45.307Z,9.48
2019-02-21T21:09:12.471Z,10.30
2019-02-21T21:11:39.616Z,11.00
2019-02-21T21:14:06.759Z,7.40
2019-02-21T21:16:33.913Z,10.13
2019-02-21T21:19:01.060Z,8.03
2019-02-21T21:21:28.210Z,11.38
2019-02-21T21:23:55.364Z,14.05
2019-02-21T21:26:22.512Z,11.05
2019-02-21T21:28:49.664Z,8.28
2019-02-21T21:31:16.814Z,6.12
2019-02-21T21:33:43.994Z,8.80
2019-02-21T21:36:11.117Z,9.45
2019-02-21T21:38:38.264Z,17.20
2019-02-21T21:41:05.415Z,9.10
2019-02-21T21:43:32.567Z,15.13
2019-02-21T21:45:59.817Z,10.10
2019-02-21T21:48:26.869Z,11.80
2019-02-21T21:50:54.017Z,11.50
2019-02-21T21:53:21.169Z,13.55
2019-02-21T21:55:48.319Z,13.10
2019-02-21T21:58:15.468Z,10.50
2019-02-21T22:00:42.619Z,16.73
2019-02-21T22:03:09.771Z,11.15
2019-02-21T22:05:36.920Z,10.65
2019-02-21T22:08:04.071Z,11.78
2019-02-21T22:10:31.221Z,20.43
2019-02-21T22:12:58.066Z,13.80
2019-02-21T22:15:24.907Z,14.65
2019-02-21T22:17:52.059Z,26.42
2019-02-21T22:20:19.221Z,13.85
2019-02-21T22:22:46.054Z,17.65
2019-02-21T22:25:13.513Z,14.85
2019-02-21T22:27:40.353Z,12.73
2019-02-21T22:30:12.115Z,8.98
2019-02-21T22:32:38.955Z,14.07
2019-02-21T22:35:06.633Z,7.05
2019-02-21T22:37:33.569Z,17.65
2019-02-21T22:40:00.408Z,8.33
2019-02-21T22:42:27.476Z,20.57
2019-02-21T22:44:54.404Z,9.03
2019-02-21T22:47:21.245Z,18.50
2019-02-21T22:49:48.088Z,22.17
2019-02-21T22:52:17.018Z,12.45
2019-02-21T22:54:43.497Z,8.10
2019-02-21T22:57:10.234Z,11.33
2019-02-21T22:59:37.338Z,20.80
2019-02-21T23:02:04.150Z,6.45
2019-02-21T23:04:34.378Z,13.50
2019-02-21T23:07:16.421Z,19.27
2019-02-21T23:09:45.030Z,15.83
2019-02-21T23:12:13.296Z,11.00
2019-02-21T23:14:40.554Z,21.75
2019-02-21T23:17:08.251Z,11.70
2019-02-21T23:19:35.402Z,13.35
2019-02-21T23:22:02.288Z,11.10
2019-02-21T23:24:29.089Z,8.98
2019-02-21T23:26:56.241Z,8.43
2019-02-21T23:29:23.387Z,7.10
2019-02-21T23:31:50.538Z,23.55
2019-02-21T23:34:19.532Z,13.05
2019-02-21T23:36:46.375Z,17.02
2019-02-21T23:39:13.226Z,14.93
2019-02-21T23:41:40.392Z,7.60
2019-02-21T23:44:09.369Z,6.97
2019-02-21T23:46:38.990Z,12.35
2019-02-21T23:49:10.080Z,9.40
2019-02-21T23:51:37.266Z,18.73
2019-02-21T23:54:04.415Z,17.15
2019-02-21T23:56:31.568Z,6.50
2019-02-21T23:58:58.418Z,8.95
